Time;durP1;ratioP1;P1;durP2;ratioP2;P2;SDS_P1;SDS_P2;PMS_P1;PMS_P2;Temp;Humidity;BMP_temperature;BMP_pressure;BME280_temperature;BME280_humidity;BME280_pressure;Samples;Min_cycle;Max_cycle;Signal;HPM_P1;HPM_P2
2022/05/20 18:28:01;;;;;;;4.85;4.35;;;18.90;99.90;;;;;;5067095;28;20569;-72
2022/05/20 18:30:27;;;;;;;5.00;4.53;;;18.70;99.90;;;;;;5067617;28;20229;-74
2022/05/20 18:32:54;;;;;;;4.22;3.83;;;18.70;99.90;;;;;;5067287;28;20223;-81
2022/05/20 18:40:52;;;;;;;6.20;5.60;;;18.90;99.90;;;;;;5062503;28;20492;-86
2022/05/20 18:43:21;;;;;;;6.07;5.35;;;18.90;99.90;;;;;;5064352;28;20200;-76
2022/05/20 18:45:46;;;;;;;6.57;5.82;;;18.90;99.90;;;;;;5055269;28;20267;-88
2022/05/20 18:48:16;;;;;;;7.47;6.50;;;18.90;99.90;;;;;;5065652;28;20311;-83
2022/05/20 18:50:42;;;;;;;6.75;6.15;;;18.90;99.90;;;;;;5054930;28;20221;-81
2022/05/20 18:53:11;;;;;;;7.88;6.88;;;18.90;99.90;;;;;;5056483;28;20178;-83
2022/05/20 18:55:37;;;;;;;7.72;7.00;;;18.90;99.90;;;;;;5057373;28;20170;-75
2022/05/20 18:58:05;;;;;;;7.20;6.60;;;18.90;99.90;;;;;;5068079;28;20180;-82
2022/05/20 19:00:34;;;;;;;8.90;7.05;;;18.90;99.90;;;;;;5054761;28;20173;-76
2022/05/20 19:05:47;;;;;;;7.65;6.95;;;18.80;99.90;;;;;;5060337;28;20199;-77
2022/05/20 19:08:13;;;;;;;7.20;6.60;;;18.80;99.90;;;;;;5061650;28;20185;-74
2022/05/20 19:10:40;;;;;;;6.88;6.28;;;18.80;99.90;;;;;;5064654;28;20291;-79
2022/05/20 19:13:10;;;;;;;6.38;5.88;;;18.70;99.90;;;;;;5057090;28;20173;-78
2022/05/20 19:15:36;;;;;;;6.25;5.72;;;18.70;99.90;;;;;;5062121;28;20374;-85
2022/05/20 19:18:03;;;;;;;5.40;5.00;;;18.70;99.90;;;;;;5060215;28;20220;-83
2022/05/20 19:20:31;;;;;;;6.20;5.70;;;18.70;99.90;;;;;;5061723;28;20176;-81
2022/05/20 19:23:00;;;;;;;6.22;5.25;;;18.60;99.90;;;;;;5064748;28;20228;-77
2022/05/20 19:25:26;;;;;;;5.60;5.10;;;18.60;99.90;;;;;;5062654;28;20178;-78
2022/05/20 19:27:51;;;;;;;4.30;3.90;;;18.60;99.90;;;;;;5057674;28;20243;-80
2022/05/20 19:30:19;;;;;;;4.90;3.90;;;18.60;99.90;;;;;;5074069;28;20180;-76
2022/05/20 19:32:48;;;;;;;4.00;3.60;;;18.50;99.90;;;;;;5059862;28;20172;-81
2022/05/20 19:35:15;;;;;;;3.97;3.58;;;18.50;99.90;;;;;;5053397;28;20178;-83
2022/05/20 19:37:44;;;;;;;4.88;4.38;;;18.50;99.90;;;;;;5049123;28;20318;-80
2022/05/20 19:40:16;;;;;;;4.90;4.40;;;18.50;99.90;;;;;;5063762;28;20268;-86
2022/05/20 19:42:42;;;;;;;5.03;4.10;;;18.50;99.90;;;;;;5040549;28;20202;-81
2022/05/20 19:45:13;;;;;;;4.10;3.80;;;18.40;99.90;;;;;;5054175;28;20188;-80
2022/05/20 19:47:41;;;;;;;5.00;4.50;;;18.40;99.90;;;;;;5044252;28;20208;-80
2022/05/20 19:50:11;;;;;;;4.68;4.00;;;18.40;99.90;;;;;;5047304;28;20214;-77
2022/05/20 19:52:38;;;;;;;5.28;4.78;;;18.40;99.90;;;;;;5049509;28;20193;-85
2022/05/20 19:55:10;;;;;;;7.13;4.55;;;18.30;99.90;;;;;;5050462;28;20178;-74
2022/05/20 20:03:08;;;;;;;5.70;4.13;;;18.10;99.90;;;;;;5043434;28;20213;-88
2022/05/20 20:05:35;;;;;;;4.50;4.10;;;18.10;99.90;;;;;;5052208;28;20399;-87
2022/05/20 20:08:03;;;;;;;4.38;3.97;;;18.10;99.90;;;;;;5046613;28;20263;-79
2022/05/20 20:10:29;;;;;;;3.78;3.45;;;18.00;99.90;;;;;;5051750;28;20236;-85
2022/05/20 20:13:00;;;;;;;7.15;4.18;;;18.00;99.90;;;;;;5047357;28;20181;-80
2022/05/20 20:15:26;;;;;;;3.85;3.50;;;18.00;99.90;;;;;;5047680;28;20342;-87
2022/05/20 20:17:52;;;;;;;4.22;3.25;;;18.00;99.90;;;;;;5050120;28;20182;-84
2022/05/20 20:20:20;;;;;;;3.83;2.83;;;18.00;99.90;;;;;;5044794;28;20197;-85
2022/05/20 20:28:16;;;;;;;3.33;2.92;;;18.00;99.90;;;;;;5038383;28;20252;-83
2022/05/20 20:30:43;;;;;;;3.50;2.90;;;17.90;99.90;;;;;;5061675;28;20181;-83
2022/05/20 20:33:08;;;;;;;3.40;3.10;;;17.90;99.90;;;;;;5045686;28;20169;-77
2022/05/20 20:35:34;;;;;;;3.47;3.17;;;17.90;99.90;;;;;;5057850;28;20204;-77
2022/05/20 20:38:00;;;;;;;5.25;3.60;;;17.80;99.90;;;;;;5045946;28;20181;-76
2022/05/20 20:40:26;;;;;;;3.47;3.17;;;17.80;99.90;;;;;;5050002;28;20186;-72
2022/05/20 20:55:59;;;;;;;4.13;3.72;;;16.90;99.90;;;;;;5143293;27;20603;-72
2022/05/20 20:58:24;;;;;;;5.22;4.10;;;16.70;99.90;;;;;;5051285;28;20255;-74
2022/05/20 21:00:55;;;;;;;4.78;4.22;;;16.70;99.90;;;;;;5061209;28;20232;-80
2022/05/20 21:03:26;;;;;;;4.93;3.83;;;16.60;99.90;;;;;;5083527;28;20180;-80
2022/05/20 21:05:54;;;;;;;5.20;4.68;;;16.70;99.90;;;;;;5081669;28;20183;-75
2022/05/20 21:08:20;;;;;;;4.80;4.40;;;16.70;99.90;;;;;;5079868;28;20242;-74
2022/05/20 21:10:48;;;;;;;4.95;4.22;;;16.70;99.90;;;;;;5081153;28;20185;-76
2022/05/20 21:13:14;;;;;;;5.07;4.55;;;16.80;99.90;;;;;;5077173;28;20208;-70
2022/05/20 21:15:45;;;;;;;4.50;4.10;;;16.80;99.90;;;;;;5071779;28;20206;-72
2022/05/20 21:18:12;;;;;;;6.13;3.50;;;16.90;99.90;;;;;;5075643;28;20170;-73
2022/05/20 21:20:41;;;;;;;4.40;3.58;;;16.90;99.90;;;;;;5079205;28;20189;-75
2022/05/20 21:23:08;;;;;;;5.85;3.97;;;16.90;99.90;;;;;;5073781;28;20174;-76
2022/05/20 21:25:39;;;;;;;3.85;3.50;;;16.90;99.90;;;;;;5070811;28;20193;-75
2022/05/20 21:28:06;;;;;;;5.10;3.55;;;17.00;99.90;;;;;;5061175;28;20180;-77
2022/05/20 21:30:35;;;;;;;4.53;2.92;;;17.00;99.90;;;;;;5078759;28;20196;-85
2022/05/20 21:33:04;;;;;;;3.65;2.88;;;17.00;99.90;;;;;;5047935;28;20190;-76
2022/05/20 21:35:29;;;;;;;3.80;3.10;;;17.10;99.90;;;;;;5077374;28;20197;-83
2022/05/20 21:37:57;;;;;;;3.30;2.58;;;17.00;99.90;;;;;;5079061;28;20248;-81
2022/05/20 21:40:23;;;;;;;4.80;2.50;;;17.00;99.90;;;;;;5077598;28;20169;-76
2022/05/20 21:42:53;;;;;;;3.13;2.53;;;17.00;99.90;;;;;;5078191;28;20246;-83
2022/05/20 21:45:25;;;;;;;3.03;2.00;;;17.00;99.90;;;;;;5081451;28;20202;-85
2022/05/20 21:47:52;;;;;;;2.97;1.92;;;17.10;99.90;;;;;;5081603;28;20181;-83
2022/05/20 21:50:22;;;;;;;4.00;2.25;;;17.00;99.90;;;;;;5078419;28;20251;-87
2022/05/20 21:52:48;;;;;;;3.25;2.75;;;17.00;99.90;;;;;;5041138;28;20178;-80
2022/05/20 21:55:15;;;;;;;2.95;2.08;;;17.00;99.90;;;;;;5069854;28;20210;-78
2022/05/20 21:57:44;;;;;;;4.75;3.15;;;16.90;99.90;;;;;;5080429;28;20177;-79
2022/05/20 22:08:43;;;;;;;3.25;2.53;;;16.90;99.90;;;;;;5083780;28;20180;-81
2022/05/20 22:08:54;;;;;;;3.00;2.50;;;16.80;99.90;;;;;;5018892;28;20252;-82
2022/05/20 22:11:21;;;;;;;3.47;2.60;;;16.80;99.90;;;;;;5037306;28;20184;-84
2022/05/20 22:13:47;;;;;;;3.13;2.17;;;16.80;99.90;;;;;;5067967;28;20285;-81
2022/05/20 22:16:12;;;;;;;3.00;2.50;;;16.80;99.90;;;;;;5070363;28;20214;-84
2022/05/20 22:18:38;;;;;;;3.40;2.45;;;16.70;99.90;;;;;;5069670;28;20208;-83
2022/05/20 22:21:04;;;;;;;3.20;2.28;;;16.70;99.90;;;;;;5069586;28;20174;-81
2022/05/20 22:23:32;;;;;;;4.15;2.20;;;16.70;99.90;;;;;;5069700;28;20227;-81
2022/05/20 22:25:58;;;;;;;2.85;2.20;;;16.70;99.90;;;;;;5037763;28;20198;-82
2022/05/20 22:28:24;;;;;;;2.95;1.90;;;16.70;99.90;;;;;;5070947;28;20189;-81
2022/05/20 22:30:52;;;;;;;3.20;2.45;;;16.60;99.90;;;;;;5067935;28;20182;-80
2022/05/20 22:33:20;;;;;;;3.25;2.40;;;16.60;99.90;;;;;;5040670;28;20289;-81
2022/05/20 22:35:48;;;;;;;3.72;2.72;;;16.60;99.90;;;;;;5043017;28;20198;-77
2022/05/20 22:38:17;;;;;;;6.85;2.53;;;16.60;99.90;;;;;;5071243;28;20188;-82
2022/05/20 22:40:45;;;;;;;3.03;2.15;;;16.50;99.90;;;;;;5071068;28;20196;-83
2022/05/20 22:43:10;;;;;;;2.97;2.17;;;16.50;99.90;;;;;;5070660;28;20166;-83
2022/05/20 22:45:38;;;;;;;4.10;2.65;;;16.40;99.90;;;;;;5069643;28;20174;-80
2022/05/20 22:48:04;;;;;;;4.10;3.08;;;16.40;99.90;;;;;;5036611;28;20210;-81
2022/05/20 22:50:35;;;;;;;3.92;3.03;;;16.30;99.90;;;;;;5021520;28;20210;-84
2022/05/20 22:53:01;;;;;;;3.20;2.90;;;16.30;99.90;;;;;;5022912;28;20207;-81
2022/05/20 22:58:15;;;;;;;4.40;3.00;;;16.20;99.90;;;;;;5030087;28;20213;-82
2022/05/20 23:00:41;;;;;;;3.75;2.75;;;16.10;99.90;;;;;;5063804;28;20182;-81
2022/05/20 23:03:07;;;;;;;7.57;3.58;;;16.10;99.90;;;;;;5068947;28;20177;-81
2022/05/20 23:05:33;;;;;;;3.97;3.10;;;16.00;99.90;;;;;;5065261;28;20178;-83
2022/05/20 23:07:58;;;;;;;5.65;3.90;;;16.00;99.90;;;;;;5062236;28;20484;-80
2022/05/20 23:10:26;;;;;;;4.90;3.80;;;16.00;99.90;;;;;;5062095;28;20183;-79
2022/05/20 23:12:52;;;;;;;5.72;3.38;;;15.90;99.90;;;;;;5035881;28;20253;-80
2022/05/20 23:15:17;;;;;;;4.50;3.47;;;15.90;99.90;;;;;;5053577;28;20351;-81
2022/05/20 23:17:46;;;;;;;5.00;3.28;;;15.80;99.90;;;;;;5065539;28;20170;-77
2022/05/20 23:20:14;;;;;;;6.32;3.63;;;15.80;99.90;;;;;;5069319;28;20301;-81
2022/05/20 23:22:42;;;;;;;4.28;3.60;;;15.80;99.90;;;;;;5055655;28;20217;-85
2022/05/20 23:25:08;;;;;;;4.07;3.58;;;15.70;99.90;;;;;;5053990;28;20451;-82
2022/05/20 23:27:34;;;;;;;4.25;3.72;;;15.70;99.90;;;;;;5062942;28;20198;-81
2022/05/20 23:30:05;;;;;;;4.30;3.90;;;15.70;99.90;;;;;;5068598;28;20269;-80
2022/05/20 23:32:31;;;;;;;4.85;3.83;;;15.60;99.90;;;;;;5066127;28;20275;-79
2022/05/20 23:34:59;;;;;;;4.35;3.60;;;15.60;99.90;;;;;;5059659;28;20240;-81
2022/05/20 23:37:32;;;;;;;4.45;3.95;;;15.50;99.90;;;;;;5057843;28;20261;-79
2022/05/20 23:39:58;;;;;;;3.95;3.55;;;15.60;99.90;;;;;;5067406;28;20186;-81
2022/05/20 23:42:26;;;;;;;5.70;3.80;;;15.50;99.90;;;;;;5034819;28;20198;-79
2022/05/20 23:44:56;;;;;;;4.47;3.72;;;15.50;99.90;;;;;;5057802;28;20191;-82
2022/05/20 23:47:22;;;;;;;5.53;3.90;;;15.50;99.90;;;;;;5061583;28;20186;-81
2022/05/20 23:49:47;;;;;;;5.25;4.13;;;15.50;99.90;;;;;;5056996;28;20182;-82
2022/05/20 23:52:13;;;;;;;4.95;4.25;;;15.40;99.90;;;;;;5049575;28;20213;-79
2022/05/20 23:57:30;;;;;;;4.35;3.88;;;15.30;99.90;;;;;;5021463;28;20258;-79
2022/05/20 23:59:57;;;;;;;4.63;4.15;;;15.30;99.90;;;;;;5030706;28;20314;-80
